sensor_id;sensor_type;location;lat;lon;timestamp;temperature;humidity
16980;DHT22;42288;52.182;21.156;2023-11-22T00:01:22;0.50;99.90
16980;DHT22;42288;52.182;21.156;2023-11-22T00:03:47;0.50;99.90
16980;DHT22;42288;52.182;21.156;2023-11-22T00:06:13;0.40;99.90
16980;DHT22;42288;52.182;21.156;2023-11-22T00:08:39;0.40;99.90
16980;DHT22;42288;52.182;21.156;2023-11-22T00:11:04;0.40;99.90
16980;DHT22;42288;52.182;21.156;2023-11-22T00:13:31;0.50;99.90
16980;DHT22;42288;52.182;21.156;2023-11-22T00:15:57;0.40;99.90
16980;DHT22;42288;52.182;21.156;2023-11-22T00:18:23;0.40;99.90
16980;DHT22;42288;52.182;21.156;2023-11-22T00:20:50;0.40;99.90
16980;DHT22;42288;52.182;21.156;2023-11-22T00:23:15;0.50;99.90
16980;DHT22;42288;52.182;21.156;2023-11-22T00:25:41;0.50;99.90
16980;DHT22;42288;52.182;21.156;2023-11-22T00:28:07;0.50;99.90
16980;DHT22;42288;52.182;21.156;2023-11-22T00:30:32;0.40;99.90
16980;DHT22;42288;52.182;21.156;2023-11-22T00:32:58;0.30;99.90
16980;DHT22;42288;52.182;21.156;2023-11-22T00:35:24;0.30;99.90
16980;DHT22;42288;52.182;21.156;2023-11-22T00:37:49;0.30;99.90
16980;DHT22;42288;52.182;21.156;2023-11-22T00:40:15;0.30;99.90
16980;DHT22;42288;52.182;21.156;2023-11-22T00:42:40;0.30;99.90
16980;DHT22;42288;52.182;21.156;2023-11-22T00:45:10;0.30;99.90
16980;DHT22;42288;52.182;21.156;2023-11-22T00:47:36;0.30;99.90
16980;DHT22;42288;52.182;21.156;2023-11-22T00:50:02;0.40;99.90
16980;DHT22;42288;52.182;21.156;2023-11-22T00:52:30;0.40;99.90
16980;DHT22;42288;52.182;21.156;2023-11-22T00:54:55;0.30;99.90
16980;DHT22;42288;52.182;21.156;2023-11-22T00:57:21;0.20;99.90
16980;DHT22;42288;52.182;21.156;2023-11-22T00:59:46;0.20;99.90
16980;DHT22;42288;52.182;21.156;2023-11-22T01:02:13;0.20;99.90
16980;DHT22;42288;52.182;21.156;2023-11-22T01:04:39;0.20;99.90
16980;DHT22;42288;52.182;21.156;2023-11-22T01:07:05;0.20;99.90
16980;DHT22;42288;52.182;21.156;2023-11-22T01:09:32;0.30;99.90
16980;DHT22;42288;52.182;21.156;2023-11-22T01:11:58;0.30;99.90
16980;DHT22;42288;52.182;21.156;2023-11-22T01:14:24;0.20;99.90
16980;DHT22;42288;52.182;21.156;2023-11-22T01:16:51;0.20;99.90
16980;DHT22;42288;52.182;21.156;2023-11-22T01:19:17;0.20;99.90
16980;DHT22;42288;52.182;21.156;2023-11-22T01:21:42;0.20;99.90
16980;DHT22;42288;52.182;21.156;2023-11-22T01:24:08;0.10;99.90
16980;DHT22;42288;52.182;21.156;2023-11-22T01:26:34;0.10;99.90
16980;DHT22;42288;52.182;21.156;2023-11-22T01:29:00;0.10;99.90
16980;DHT22;42288;52.182;21.156;2023-11-22T01:31:25;0.00;99.90
16980;DHT22;42288;52.182;21.156;2023-11-22T01:33:53;0.10;99.90
16980;DHT22;42288;52.182;21.156;2023-11-22T01:36:19;0.10;99.90
16980;DHT22;42288;52.182;21.156;2023-11-22T01:38:45;0.10;99.90
16980;DHT22;42288;52.182;21.156;2023-11-22T01:41:12;0.20;99.90
16980;DHT22;42288;52.182;21.156;2023-11-22T01:43:39;0.00;99.90
16980;DHT22;42288;52.182;21.156;2023-11-22T01:46:06;0.00;99.90
16980;DHT22;42288;52.182;21.156;2023-11-22T01:48:32;0.00;99.90
16980;DHT22;42288;52.182;21.156;2023-11-22T01:50:58;-0.10;99.90
16980;DHT22;42288;52.182;21.156;2023-11-22T01:53:24;-0.20;99.90
16980;DHT22;42288;52.182;21.156;2023-11-22T01:55:50;-0.10;99.90
16980;DHT22;42288;52.182;21.156;2023-11-22T01:58:16;-0.10;99.90
16980;DHT22;42288;52.182;21.156;2023-11-22T02:00:49;0.00;99.90
16980;DHT22;42288;52.182;21.156;2023-11-22T02:03:15;0.00;99.90
16980;DHT22;42288;52.182;21.156;2023-11-22T02:05:42;0.00;99.90
16980;DHT22;42288;52.182;21.156;2023-11-22T02:08:11;0.10;99.90
16980;DHT22;42288;52.182;21.156;2023-11-22T02:10:37;0.00;99.90
16980;DHT22;42288;52.182;21.156;2023-11-22T02:13:06;0.00;99.90
16980;DHT22;42288;52.182;21.156;2023-11-22T02:15:37;-0.10;99.90
16980;DHT22;42288;52.182;21.156;2023-11-22T02:18:04;-0.20;99.90
16980;DHT22;42288;52.182;21.156;2023-11-22T02:20:31;-0.20;99.90
16980;DHT22;42288;52.182;21.156;2023-11-22T02:22:57;-0.20;99.90
16980;DHT22;42288;52.182;21.156;2023-11-22T02:25:23;-0.10;99.90
16980;DHT22;42288;52.182;21.156;2023-11-22T02:27:48;-0.30;99.90
16980;DHT22;42288;52.182;21.156;2023-11-22T02:30:14;-0.20;99.90
16980;DHT22;42288;52.182;21.156;2023-11-22T02:32:40;-0.30;99.90
16980;DHT22;42288;52.182;21.156;2023-11-22T02:35:06;-0.30;99.90
16980;DHT22;42288;52.182;21.156;2023-11-22T02:37:34;-0.40;99.90
16980;DHT22;42288;52.182;21.156;2023-11-22T02:40:12;-0.30;99.90
16980;DHT22;42288;52.182;21.156;2023-11-22T02:42:40;-0.50;99.90
16980;DHT22;42288;52.182;21.156;2023-11-22T02:45:06;-0.50;99.90
16980;DHT22;42288;52.182;21.156;2023-11-22T02:47:32;-0.40;99.90
16980;DHT22;42288;52.182;21.156;2023-11-22T02:50:00;-0.40;99.90
16980;DHT22;42288;52.182;21.156;2023-11-22T02:52:26;-0.40;99.90
16980;DHT22;42288;52.182;21.156;2023-11-22T02:54:52;-0.30;99.90
16980;DHT22;42288;52.182;21.156;2023-11-22T02:57:17;-0.40;99.90
16980;DHT22;42288;52.182;21.156;2023-11-22T02:59:44;-0.40;99.90
16980;DHT22;42288;52.182;21.156;2023-11-22T03:02:10;-0.40;99.90
16980;DHT22;42288;52.182;21.156;2023-11-22T03:04:35;-0.50;99.90
16980;DHT22;42288;52.182;21.156;2023-11-22T03:07:01;-0.50;99.90
16980;DHT22;42288;52.182;21.156;2023-11-22T03:09:27;-0.50;99.90
16980;DHT22;42288;52.182;21.156;2023-11-22T03:11:54;-0.50;99.90
16980;DHT22;42288;52.182;21.156;2023-11-22T03:14:20;-0.50;99.90
16980;DHT22;42288;52.182;21.156;2023-11-22T03:16:47;-0.50;99.90
16980;DHT22;42288;52.182;21.156;2023-11-22T03:19:13;-0.50;99.90
16980;DHT22;42288;52.182;21.156;2023-11-22T03:21:40;-0.50;99.90
16980;DHT22;42288;52.182;21.156;2023-11-22T03:24:07;-0.60;99.90
16980;DHT22;42288;52.182;21.156;2023-11-22T03:26:34;-0.70;99.90
16980;DHT22;42288;52.182;21.156;2023-11-22T03:29:00;-0.70;99.90
16980;DHT22;42288;52.182;21.156;2023-11-22T03:31:26;-0.70;99.90
16980;DHT22;42288;52.182;21.156;2023-11-22T03:33:53;-0.70;99.90
16980;DHT22;42288;52.182;21.156;2023-11-22T03:36:20;-0.60;99.90
16980;DHT22;42288;52.182;21.156;2023-11-22T03:38:46;-0.80;99.90
16980;DHT22;42288;52.182;21.156;2023-11-22T03:41:11;-0.80;99.90
16980;DHT22;42288;52.182;21.156;2023-11-22T03:43:37;-1.00;99.90
16980;DHT22;42288;52.182;21.156;2023-11-22T03:46:03;-1.10;99.90
16980;DHT22;42288;52.182;21.156;2023-11-22T03:48:29;-1.10;99.90
16980;DHT22;42288;52.182;21.156;2023-11-22T03:50:54;-1.20;99.90
16980;DHT22;42288;52.182;21.156;2023-11-22T03:53:20;-1.40;99.90
16980;DHT22;42288;52.182;21.156;2023-11-22T03:55:48;-1.30;99.90
16980;DHT22;42288;52.182;21.156;2023-11-22T03:58:14;-1.30;99.90
16980;DHT22;42288;52.182;21.156;2023-11-22T04:00:40;-1.40;99.90
16980;DHT22;42288;52.182;21.156;2023-11-22T04:03:05;-1.50;99.90
16980;DHT22;42288;52.182;21.156;2023-11-22T04:05:32;-1.50;99.90
16980;DHT22;42288;52.182;21.156;2023-11-22T04:07:57;-1.60;99.90
16980;DHT22;42288;52.182;21.156;2023-11-22T04:10:23;-1.60;99.90
16980;DHT22;42288;52.182;21.156;2023-11-22T04:12:49;-1.70;99.90
16980;DHT22;42288;52.182;21.156;2023-11-22T04:15:15;-1.80;99.90
16980;DHT22;42288;52.182;21.156;2023-11-22T04:17:41;-1.80;99.90
16980;DHT22;42288;52.182;21.156;2023-11-22T04:20:07;-2.00;99.90
16980;DHT22;42288;52.182;21.156;2023-11-22T04:22:41;-2.10;99.90
16980;DHT22;42288;52.182;21.156;2023-11-22T04:25:07;-2.00;99.90
16980;DHT22;42288;52.182;21.156;2023-11-22T04:27:34;-2.10;99.90
16980;DHT22;42288;52.182;21.156;2023-11-22T04:30:00;-2.20;99.90
16980;DHT22;42288;52.182;21.156;2023-11-22T04:32:26;-2.20;99.90
16980;DHT22;42288;52.182;21.156;2023-11-22T04:34:51;-2.20;99.90
16980;DHT22;42288;52.182;21.156;2023-11-22T04:37:17;-2.30;99.90
16980;DHT22;42288;52.182;21.156;2023-11-22T04:39:43;-2.30;99.90
16980;DHT22;42288;52.182;21.156;2023-11-22T04:42:09;-2.30;99.90
16980;DHT22;42288;52.182;21.156;2023-11-22T04:44:35;-2.30;99.90
16980;DHT22;42288;52.182;21.156;2023-11-22T04:47:00;-2.40;99.90
16980;DHT22;42288;52.182;21.156;2023-11-22T04:49:27;-2.40;99.90
16980;DHT22;42288;52.182;21.156;2023-11-22T04:51:52;-2.40;99.90
16980;DHT22;42288;52.182;21.156;2023-11-22T04:54:18;-2.50;99.90
16980;DHT22;42288;52.182;21.156;2023-11-22T04:56:44;-2.60;99.90
16980;DHT22;42288;52.182;21.156;2023-11-22T04:59:10;-2.60;99.90
16980;DHT22;42288;52.182;21.156;2023-11-22T05:01:36;-2.70;99.90
16980;DHT22;42288;52.182;21.156;2023-11-22T05:04:01;-2.70;99.90
16980;DHT22;42288;52.182;21.156;2023-11-22T05:06:27;-2.70;99.90
16980;DHT22;42288;52.182;21.156;2023-11-22T05:08:54;-2.70;99.90
16980;DHT22;42288;52.182;21.156;2023-11-22T05:11:20;-2.80;99.90
16980;DHT22;42288;52.182;21.156;2023-11-22T05:13:46;-2.80;99.90
16980;DHT22;42288;52.182;21.156;2023-11-22T05:16:12;-2.90;99.90
16980;DHT22;42288;52.182;21.156;2023-11-22T05:18:38;-2.90;99.90
16980;DHT22;42288;52.182;21.156;2023-11-22T05:21:04;-3.00;99.90
16980;DHT22;42288;52.182;21.156;2023-11-22T05:23:30;-3.00;99.90
16980;DHT22;42288;52.182;21.156;2023-11-22T05:25:59;-2.90;99.90
16980;DHT22;42288;52.182;21.156;2023-11-22T05:28:29;-2.90;99.90
16980;DHT22;42288;52.182;21.156;2023-11-22T05:30:54;-3.10;99.90
16980;DHT22;42288;52.182;21.156;2023-11-22T05:33:20;-3.10;99.90
16980;DHT22;42288;52.182;21.156;2023-11-22T05:35:45;-3.10;99.90
16980;DHT22;42288;52.182;21.156;2023-11-22T05:38:11;-3.10;99.90
16980;DHT22;42288;52.182;21.156;2023-11-22T05:40:37;-3.20;99.90
16980;DHT22;42288;52.182;21.156;2023-11-22T05:43:04;-3.20;99.90
16980;DHT22;42288;52.182;21.156;2023-11-22T05:45:30;-3.30;99.90
16980;DHT22;42288;52.182;21.156;2023-11-22T05:47:55;-3.40;99.90
16980;DHT22;42288;52.182;21.156;2023-11-22T05:50:21;-3.40;99.90
16980;DHT22;42288;52.182;21.156;2023-11-22T05:52:47;-3.50;99.90
16980;DHT22;42288;52.182;21.156;2023-11-22T05:55:13;-3.50;99.90
16980;DHT22;42288;52.182;21.156;2023-11-22T05:57:40;-3.40;99.90
16980;DHT22;42288;52.182;21.156;2023-11-22T06:00:07;-3.50;99.90
16980;DHT22;42288;52.182;21.156;2023-11-22T06:02:33;-3.50;99.90
16980;DHT22;42288;52.182;21.156;2023-11-22T06:04:58;-3.60;99.90
16980;DHT22;42288;52.182;21.156;2023-11-22T06:07:24;-3.60;99.90
16980;DHT22;42288;52.182;21.156;2023-11-22T06:09:50;-3.60;99.90
16980;DHT22;42288;52.182;21.156;2023-11-22T06:12:15;-3.70;99.90
16980;DHT22;42288;52.182;21.156;2023-11-22T06:14:41;-3.60;99.90
16980;DHT22;42288;52.182;21.156;2023-11-22T06:17:07;-3.60;99.90
16980;DHT22;42288;52.182;21.156;2023-11-22T06:19:33;-3.60;99.90
16980;DHT22;42288;52.182;21.156;2023-11-22T06:21:59;-3.70;99.90
16980;DHT22;42288;52.182;21.156;2023-11-22T06:24:27;-3.70;99.90
16980;DHT22;42288;52.182;21.156;2023-11-22T06:26:52;-3.60;99.90
16980;DHT22;42288;52.182;21.156;2023-11-22T06:29:18;-3.60;99.90
16980;DHT22;42288;52.182;21.156;2023-11-22T06:31:44;-3.70;99.90
16980;DHT22;42288;52.182;21.156;2023-11-22T06:34:09;-3.60;99.90
16980;DHT22;42288;52.182;21.156;2023-11-22T06:36:35;-3.60;99.90
16980;DHT22;42288;52.182;21.156;2023-11-22T06:39:01;-3.60;99.90
16980;DHT22;42288;52.182;21.156;2023-11-22T06:41:26;-3.50;99.90
16980;DHT22;42288;52.182;21.156;2023-11-22T06:43:54;-3.50;99.90
16980;DHT22;42288;52.182;21.156;2023-11-22T06:46:19;-3.50;99.90
16980;DHT22;42288;52.182;21.156;2023-11-22T06:48:45;-3.50;99.90
16980;DHT22;42288;52.182;21.156;2023-11-22T06:51:11;-3.40;99.90
16980;DHT22;42288;52.182;21.156;2023-11-22T06:53:38;-3.40;99.90
16980;DHT22;42288;52.182;21.156;2023-11-22T06:56:04;-3.40;99.90
16980;DHT22;42288;52.182;21.156;2023-11-22T06:58:29;-3.30;99.90
16980;DHT22;42288;52.182;21.156;2023-11-22T07:00:55;-3.30;99.90
16980;DHT22;42288;52.182;21.156;2023-11-22T07:03:21;-3.30;99.90
16980;DHT22;42288;52.182;21.156;2023-11-22T07:05:46;-3.20;99.90
16980;DHT22;42288;52.182;21.156;2023-11-22T07:08:12;-3.30;99.90
16980;DHT22;42288;52.182;21.156;2023-11-22T07:10:38;-3.20;99.90
16980;DHT22;42288;52.182;21.156;2023-11-22T07:13:04;-3.10;99.90
16980;DHT22;42288;52.182;21.156;2023-11-22T07:15:30;-3.10;99.90
16980;DHT22;42288;52.182;21.156;2023-11-22T07:17:56;-3.00;99.90
16980;DHT22;42288;52.182;21.156;2023-11-22T07:20:23;-2.90;99.90
16980;DHT22;42288;52.182;21.156;2023-11-22T07:22:49;-2.90;99.90
16980;DHT22;42288;52.182;21.156;2023-11-22T07:25:21;-3.00;99.90
16980;DHT22;42288;52.182;21.156;2023-11-22T07:27:50;-2.90;99.90
16980;DHT22;42288;52.182;21.156;2023-11-22T07:30:16;-2.80;99.90
16980;DHT22;42288;52.182;21.156;2023-11-22T07:32:44;-2.70;99.90
16980;DHT22;42288;52.182;21.156;2023-11-22T07:35:10;-2.70;99.90
16980;DHT22;42288;52.182;21.156;2023-11-22T07:37:37;-2.70;99.90
16980;DHT22;42288;52.182;21.156;2023-11-22T07:40:08;-2.60;99.90
16980;DHT22;42288;52.182;21.156;2023-11-22T07:42:36;-2.50;99.90
16980;DHT22;42288;52.182;21.156;2023-11-22T07:45:02;-2.50;99.90
16980;DHT22;42288;52.182;21.156;2023-11-22T07:47:27;-2.40;99.90
16980;DHT22;42288;52.182;21.156;2023-11-22T07:49:54;-2.40;99.90
16980;DHT22;42288;52.182;21.156;2023-11-22T07:52:23;-2.30;99.90
16980;DHT22;42288;52.182;21.156;2023-11-22T07:54:56;-2.20;99.90
16980;DHT22;42288;52.182;21.156;2023-11-22T07:57:22;-2.10;99.90
16980;DHT22;42288;52.182;21.156;2023-11-22T07:59:48;-2.00;99.90
16980;DHT22;42288;52.182;21.156;2023-11-22T08:02:14;-2.00;99.90
16980;DHT22;42288;52.182;21.156;2023-11-22T08:04:40;-1.90;99.90
16980;DHT22;42288;52.182;21.156;2023-11-22T08:07:06;-2.00;99.90
16980;DHT22;42288;52.182;21.156;2023-11-22T08:09:32;-1.90;99.90
16980;DHT22;42288;52.182;21.156;2023-11-22T08:11:58;-1.80;99.90
16980;DHT22;42288;52.182;21.156;2023-11-22T08:14:26;-1.70;99.90
16980;DHT22;42288;52.182;21.156;2023-11-22T08:16:54;-1.70;99.90
16980;DHT22;42288;52.182;21.156;2023-11-22T08:19:19;-1.70;99.90
16980;DHT22;42288;52.182;21.156;2023-11-22T08:21:45;-1.60;99.90
16980;DHT22;42288;52.182;21.156;2023-11-22T08:24:11;-1.50;99.90
16980;DHT22;42288;52.182;21.156;2023-11-22T08:26:38;-1.40;99.90
16980;DHT22;42288;52.182;21.156;2023-11-22T08:29:04;-1.30;99.90
16980;DHT22;42288;52.182;21.156;2023-11-22T08:31:30;-1.20;99.90
16980;DHT22;42288;52.182;21.156;2023-11-22T08:33:56;-1.10;99.90
16980;DHT22;42288;52.182;21.156;2023-11-22T08:36:22;-1.00;99.90
16980;DHT22;42288;52.182;21.156;2023-11-22T08:38:49;-0.90;99.90
16980;DHT22;42288;52.182;21.156;2023-11-22T08:41:14;-0.80;99.90
16980;DHT22;42288;52.182;21.156;2023-11-22T08:43:41;-0.80;99.90
16980;DHT22;42288;52.182;21.156;2023-11-22T08:46:07;-0.70;99.90
16980;DHT22;42288;52.182;21.156;2023-11-22T08:48:34;-0.60;99.90
16980;DHT22;42288;52.182;21.156;2023-11-22T08:51:00;-0.50;99.90
16980;DHT22;42288;52.182;21.156;2023-11-22T08:53:26;-0.40;99.90
16980;DHT22;42288;52.182;21.156;2023-11-22T08:55:52;-0.30;99.90
16980;DHT22;42288;52.182;21.156;2023-11-22T08:58:20;-0.10;99.90
16980;DHT22;42288;52.182;21.156;2023-11-22T09:00:46;0.00;99.90
16980;DHT22;42288;52.182;21.156;2023-11-22T09:03:12;0.10;99.90
16980;DHT22;42288;52.182;21.156;2023-11-22T09:05:42;0.10;99.90
16980;DHT22;42288;52.182;21.156;2023-11-22T09:08:08;0.30;99.90
16980;DHT22;42288;52.182;21.156;2023-11-22T09:10:39;0.30;99.90
16980;DHT22;42288;52.182;21.156;2023-11-22T09:13:05;0.40;99.90
16980;DHT22;42288;52.182;21.156;2023-11-22T09:15:31;0.50;99.90
16980;DHT22;42288;52.182;21.156;2023-11-22T09:17:59;0.40;99.90
16980;DHT22;42288;52.182;21.156;2023-11-22T09:20:25;0.60;99.90
16980;DHT22;42288;52.182;21.156;2023-11-22T09:22:52;0.80;99.90
16980;DHT22;42288;52.182;21.156;2023-11-22T09:25:21;0.90;99.90
16980;DHT22;42288;52.182;21.156;2023-11-22T09:27:49;1.20;99.90
16980;DHT22;42288;52.182;21.156;2023-11-22T09:30:20;1.50;99.90
16980;DHT22;42288;52.182;21.156;2023-11-22T09:33:03;1.70;99.90
16980;DHT22;42288;52.182;21.156;2023-11-22T09:35:29;1.80;99.90
16980;DHT22;42288;52.182;21.156;2023-11-22T09:38:00;1.90;99.90
16980;DHT22;42288;52.182;21.156;2023-11-22T09:40:26;2.30;99.90
16980;DHT22;42288;52.182;21.156;2023-11-22T09:42:59;2.70;99.90
16980;DHT22;42288;52.182;21.156;2023-11-22T09:45:27;2.80;99.90
16980;DHT22;42288;52.182;21.156;2023-11-22T09:47:55;3.30;99.90
16980;DHT22;42288;52.182;21.156;2023-11-22T09:50:35;3.60;99.90
16980;DHT22;42288;52.182;21.156;2023-11-22T09:53:02;4.10;99.90
16980;DHT22;42288;52.182;21.156;2023-11-22T09:55:30;4.40;99.90
16980;DHT22;42288;52.182;21.156;2023-11-22T09:57:59;4.70;99.90
16980;DHT22;42288;52.182;21.156;2023-11-22T10:00:28;5.10;99.00
16980;DHT22;42288;52.182;21.156;2023-11-22T10:02:56;5.30;99.50
16980;DHT22;42288;52.182;21.156;2023-11-22T10:05:23;5.30;98.50
16980;DHT22;42288;52.182;21.156;2023-11-22T10:07:48;5.70;98.40
16980;DHT22;42288;52.182;21.156;2023-11-22T10:10:15;6.00;97.00
16980;DHT22;42288;52.182;21.156;2023-11-22T10:12:44;6.00;95.70
16980;DHT22;42288;52.182;21.156;2023-11-22T10:15:17;6.30;95.60
16980;DHT22;42288;52.182;21.156;2023-11-22T10:18:07;6.40;93.50
16980;DHT22;42288;52.182;21.156;2023-11-22T10:23:01;6.90;91.20
16980;DHT22;42288;52.182;21.156;2023-11-22T10:25:28;7.20;91.90
16980;DHT22;42288;52.182;21.156;2023-11-22T10:27:55;7.20;90.70
16980;DHT22;42288;52.182;21.156;2023-11-22T10:30:20;7.20;90.60
16980;DHT22;42288;52.182;21.156;2023-11-22T10:32:46;7.30;90.20
16980;DHT22;42288;52.182;21.156;2023-11-22T10:35:12;7.40;89.60
16980;DHT22;42288;52.182;21.156;2023-11-22T10:37:43;7.20;89.10
16980;DHT22;42288;52.182;21.156;2023-11-22T10:40:12;7.30;89.10
16980;DHT22;42288;52.182;21.156;2023-11-22T10:42:40;7.40;88.00
16980;DHT22;42288;52.182;21.156;2023-11-22T10:45:06;7.10;86.80
16980;DHT22;42288;52.182;21.156;2023-11-22T10:47:37;7.00;88.90
16980;DHT22;42288;52.182;21.156;2023-11-22T10:50:07;7.10;89.10
16980;DHT22;42288;52.182;21.156;2023-11-22T10:52:35;6.60;84.70
16980;DHT22;42288;52.182;21.156;2023-11-22T10:55:03;6.50;87.00
16980;DHT22;42288;52.182;21.156;2023-11-22T10:57:35;6.30;86.80
16980;DHT22;42288;52.182;21.156;2023-11-22T11:00:04;5.80;86.20
16980;DHT22;42288;52.182;21.156;2023-11-22T11:02:45;5.80;85.20
16980;DHT22;42288;52.182;21.156;2023-11-22T11:05:21;5.60;90.30
16980;DHT22;42288;52.182;21.156;2023-11-22T11:08:08;5.20;89.30
16980;DHT22;42288;52.182;21.156;2023-11-22T11:10:44;5.20;90.40
16980;DHT22;42288;52.182;21.156;2023-11-22T11:13:11;4.90;90.80
16980;DHT22;42288;52.182;21.156;2023-11-22T11:15:40;4.60;91.90
16980;DHT22;42288;52.182;21.156;2023-11-22T11:18:13;4.20;89.90
16980;DHT22;42288;52.182;21.156;2023-11-22T11:20:51;4.00;91.60
16980;DHT22;42288;52.182;21.156;2023-11-22T11:23:22;3.70;90.30
16980;DHT22;42288;52.182;21.156;2023-11-22T11:25:55;3.40;90.30
16980;DHT22;42288;52.182;21.156;2023-11-22T11:28:25;3.30;92.80
16980;DHT22;42288;52.182;21.156;2023-11-22T11:30:54;3.40;93.10
16980;DHT22;42288;52.182;21.156;2023-11-22T11:33:27;3.50;93.20
16980;DHT22;42288;52.182;21.156;2023-11-22T11:35:52;3.50;92.50
16980;DHT22;42288;52.182;21.156;2023-11-22T11:38:30;3.40;91.50
16980;DHT22;42288;52.182;21.156;2023-11-22T11:40:56;3.30;93.20
16980;DHT22;42288;52.182;21.156;2023-11-22T11:43:42;3.20;92.40
16980;DHT22;42288;52.182;21.156;2023-11-22T11:46:09;3.20;93.20
16980;DHT22;42288;52.182;21.156;2023-11-22T11:48:35;3.00;92.10
16980;DHT22;42288;52.182;21.156;2023-11-22T11:51:01;2.60;91.60
16980;DHT22;42288;52.182;21.156;2023-11-22T11:53:27;2.40;92.20
16980;DHT22;42288;52.182;21.156;2023-11-22T11:55:54;2.50;93.20
16980;DHT22;42288;52.182;21.156;2023-11-22T11:58:20;2.50;93.80
16980;DHT22;42288;52.182;21.156;2023-11-22T12:00:46;2.40;93.30
16980;DHT22;42288;52.182;21.156;2023-11-22T12:03:11;2.40;93.00
16980;DHT22;42288;52.182;21.156;2023-11-22T12:05:38;2.50;92.50
16980;DHT22;42288;52.182;21.156;2023-11-22T12:08:04;3.00;93.70
16980;DHT22;42288;52.182;21.156;2023-11-22T12:10:30;3.30;93.70
16980;DHT22;42288;52.182;21.156;2023-11-22T12:12:57;3.60;93.90
16980;DHT22;42288;52.182;21.156;2023-11-22T12:15:25;4.10;92.40
16980;DHT22;42288;52.182;21.156;2023-11-22T12:17:50;4.30;91.40
16980;DHT22;42288;52.182;21.156;2023-11-22T12:20:17;4.10;91.30
16980;DHT22;42288;52.182;21.156;2023-11-22T12:22:44;4.10;91.90
16980;DHT22;42288;52.182;21.156;2023-11-22T12:25:11;4.20;92.10
16980;DHT22;42288;52.182;21.156;2023-11-22T12:27:43;4.00;91.80
16980;DHT22;42288;52.182;21.156;2023-11-22T12:30:36;4.40;91.50
16980;DHT22;42288;52.182;21.156;2023-11-22T12:33:05;4.80;90.50
16980;DHT22;42288;52.182;21.156;2023-11-22T12:35:33;4.40;89.30
16980;DHT22;42288;52.182;21.156;2023-11-22T12:38:04;4.20;90.30
16980;DHT22;42288;52.182;21.156;2023-11-22T12:40:31;4.40;90.70
16980;DHT22;42288;52.182;21.156;2023-11-22T12:42:57;4.40;90.20
16980;DHT22;42288;52.182;21.156;2023-11-22T12:45:25;4.50;90.90
16980;DHT22;42288;52.182;21.156;2023-11-22T12:47:51;4.60;90.10
16980;DHT22;42288;52.182;21.156;2023-11-22T12:50:37;4.30;88.80
16980;DHT22;42288;52.182;21.156;2023-11-22T12:53:11;4.40;90.90
16980;DHT22;42288;52.182;21.156;2023-11-22T12:55:45;4.40;91.00
16980;DHT22;42288;52.182;21.156;2023-11-22T12:58:12;3.90;90.10
16980;DHT22;42288;52.182;21.156;2023-11-22T13:00:39;3.60;90.80
16980;DHT22;42288;52.182;21.156;2023-11-22T13:03:06;3.30;90.90
16980;DHT22;42288;52.182;21.156;2023-11-22T13:05:33;3.20;92.30
16980;DHT22;42288;52.182;21.156;2023-11-22T13:07:58;3.40;92.10
16980;DHT22;42288;52.182;21.156;2023-11-22T13:10:24;3.40;92.30
16980;DHT22;42288;52.182;21.156;2023-11-22T13:12:54;2.90;91.80
16980;DHT22;42288;52.182;21.156;2023-11-22T13:15:21;2.50;92.10
16980;DHT22;42288;52.182;21.156;2023-11-22T13:17:52;2.40;92.80
16980;DHT22;42288;52.182;21.156;2023-11-22T13:20:22;2.30;93.10
16980;DHT22;42288;52.182;21.156;2023-11-22T13:22:48;2.20;93.20
16980;DHT22;42288;52.182;21.156;2023-11-22T13:25:14;1.90;93.40
16980;DHT22;42288;52.182;21.156;2023-11-22T13:27:40;1.60;93.40
16980;DHT22;42288;52.182;21.156;2023-11-22T13:30:06;1.70;94.20
16980;DHT22;42288;52.182;21.156;2023-11-22T13:32:32;1.80;95.50
16980;DHT22;42288;52.182;21.156;2023-11-22T13:34:58;1.70;94.70
16980;DHT22;42288;52.182;21.156;2023-11-22T13:37:25;1.60;94.80
16980;DHT22;42288;52.182;21.156;2023-11-22T13:39:51;1.60;94.70
16980;DHT22;42288;52.182;21.156;2023-11-22T13:42:17;1.50;95.30
16980;DHT22;42288;52.182;21.156;2023-11-22T13:44:42;1.60;96.00
16980;DHT22;42288;52.182;21.156;2023-11-22T13:47:10;1.50;96.20
16980;DHT22;42288;52.182;21.156;2023-11-22T13:49:36;1.60;96.90
16980;DHT22;42288;52.182;21.156;2023-11-22T13:52:05;1.50;97.80
16980;DHT22;42288;52.182;21.156;2023-11-22T13:54:31;1.60;96.80
16980;DHT22;42288;52.182;21.156;2023-11-22T13:57:00;1.60;97.20
16980;DHT22;42288;52.182;21.156;2023-11-22T13:59:26;1.60;97.30
16980;DHT22;42288;52.182;21.156;2023-11-22T14:01:52;1.60;97.60
16980;DHT22;42288;52.182;21.156;2023-11-22T14:04:18;1.40;97.00
16980;DHT22;42288;52.182;21.156;2023-11-22T14:06:43;1.40;97.10
16980;DHT22;42288;52.182;21.156;2023-11-22T14:09:09;1.30;97.80
16980;DHT22;42288;52.182;21.156;2023-11-22T14:11:38;1.20;98.10
16980;DHT22;42288;52.182;21.156;2023-11-22T14:14:03;1.30;98.50
16980;DHT22;42288;52.182;21.156;2023-11-22T14:16:29;1.30;98.80
16980;DHT22;42288;52.182;21.156;2023-11-22T14:18:59;1.30;98.70
16980;DHT22;42288;52.182;21.156;2023-11-22T14:21:25;1.20;98.90
16980;DHT22;42288;52.182;21.156;2023-11-22T14:23:50;1.30;98.70
16980;DHT22;42288;52.182;21.156;2023-11-22T14:26:18;1.30;98.80
16980;DHT22;42288;52.182;21.156;2023-11-22T14:28:43;1.30;98.80
16980;DHT22;42288;52.182;21.156;2023-11-22T14:31:09;1.20;99.00
16980;DHT22;42288;52.182;21.156;2023-11-22T14:33:35;1.00;98.80
16980;DHT22;42288;52.182;21.156;2023-11-22T14:36:01;1.00;99.10
16980;DHT22;42288;52.182;21.156;2023-11-22T14:38:26;1.00;99.60
16980;DHT22;42288;52.182;21.156;2023-11-22T14:40:52;1.00;99.70
16980;DHT22;42288;52.182;21.156;2023-11-22T14:43:18;0.90;99.70
16980;DHT22;42288;52.182;21.156;2023-11-22T14:45:44;0.80;99.90
16980;DHT22;42288;52.182;21.156;2023-11-22T14:48:09;0.80;99.90
16980;DHT22;42288;52.182;21.156;2023-11-22T14:50:37;0.70;99.90
16980;DHT22;42288;52.182;21.156;2023-11-22T14:53:02;0.60;99.90
16980;DHT22;42288;52.182;21.156;2023-11-22T14:55:29;0.50;99.90
16980;DHT22;42288;52.182;21.156;2023-11-22T14:57:54;0.50;99.90
16980;DHT22;42288;52.182;21.156;2023-11-22T15:00:22;0.50;99.90
16980;DHT22;42288;52.182;21.156;2023-11-22T15:02:48;0.50;99.90
16980;DHT22;42288;52.182;21.156;2023-11-22T15:05:19;0.30;99.90
16980;DHT22;42288;52.182;21.156;2023-11-22T15:07:45;0.40;99.90
16980;DHT22;42288;52.182;21.156;2023-11-22T15:10:11;0.30;99.90
16980;DHT22;42288;52.182;21.156;2023-11-22T15:12:37;0.30;99.90
16980;DHT22;42288;52.182;21.156;2023-11-22T15:15:06;0.20;99.90
16980;DHT22;42288;52.182;21.156;2023-11-22T15:17:32;0.00;99.90
16980;DHT22;42288;52.182;21.156;2023-11-22T15:19:58;-0.10;99.90
16980;DHT22;42288;52.182;21.156;2023-11-22T15:22:25;0.00;99.90
16980;DHT22;42288;52.182;21.156;2023-11-22T15:24:51;-0.10;99.90
16980;DHT22;42288;52.182;21.156;2023-11-22T15:27:17;-0.10;99.90